• Join FlightAware (Why Join?)
  • Login
  • US Flag 
03:55AM EDT


 

Airport Tracker/Info


-or-


 

Live Flight TrackerFlight Track Log ✈ CMP472 ✈ 19-Apr-2013 ✈ MPTO / PTY - KLAX

Flight Track Log - Related Links

Times and Time Zones

All times are in EDT time to prevent confusion due to time zone crossing. See the CMP472 flight status page for this flight to view local times or setup timezone preferences in your user account.

Time Position Orientation Groundspeed Altitude Reporting Facility
EDT Latitude Longitude Course Direction KTS MPH feet Rate Location/Type
02:27PM 9.0910 -79.3690 28° Northeast 181 208 1,500  Level FlightAware
02:28PM 9.1140 -79.3570 27° Northeast 188 216 2,600 2,220 Climbing FlightAware
02:28PM 9.1250 -79.3500 32° Northeast 180 207 3,200 1,920 Climbing FlightAware
02:28PM 9.1440 -79.3380 32° Northeast 204 235 3,900 1,380 Climbing FlightAware
02:29PM 9.1720 -79.3210 31° Northeast 244 281 4,500 1,380 Climbing FlightAware
02:29PM 9.1980 -79.3070 28° Northeast 262 302 5,200 1,920 Climbing FlightAware
02:30PM 9.2160 -79.3000 21° North 282 325 5,800 2,640 Climbing FlightAware
02:30PM 9.2520 -79.3090 346° North 283 326 7,200 2,760 Climbing FlightAware
02:30PM 9.2650 -79.3250 309° West 282 325 7,900 2,700 Climbing FlightAware
02:31PM 9.2780 -79.3560 293° West 285 328 9,000 2,520 Climbing FlightAware
02:31PM 9.2860 -79.3740 294° West 288 331 9,600 1,800 Climbing FlightAware
02:32PM 9.3080 -79.4250 294° West 314 361 10,700 1,320 Climbing FlightAware
02:32PM 9.3370 -79.4900 294° West 356 410 11,500 1,500 Climbing FlightAware
02:33PM 9.3580 -79.5560 288° West 367 422 12,900 2,160 Climbing FlightAware
02:34PM 9.3810 -79.6310 287° West 372 428 14,600 2,160 Climbing FlightAware
02:34PM 9.4010 -79.6990 287° West 382 440 16,000 1,860 Climbing FlightAware
02:35PM 9.4220 -79.7680 287° West 390 449 17,100 1,740 Climbing FlightAware
02:36PM 9.4460 -79.8480 287° West 396 456 18,500 1,680 Climbing FlightAware
02:37PM 9.4750 -79.9180 293° West 401 461 19,500 1,500 Climbing FlightAware
02:37PM 9.5110 -79.9960 295° West 414 476 20,700 1,620 Climbing FlightAware
02:38PM 9.5440 -80.0680 295° West 416 479 21,800 1,380 Climbing FlightAware
02:39PM 9.5760 -80.1390 295° West 426 490 22,600 780 Climbing FlightAware
02:39PM 9.6040 -80.2010 295° West 427 491 22,900 1,320 Climbing FlightAware
02:40PM 9.6490 -80.2970 295° West 435 501 24,500 1,740 Climbing FlightAware
02:41PM 9.6820 -80.3710 294° West 433 498 25,400 1,260 Climbing FlightAware
02:41PM 9.7170 -80.4460 295° West 434 499 26,300 1,020 Climbing FlightAware
02:42PM 9.7540 -80.5270 295° West 441 507 26,900 600 Climbing FlightAware
02:43PM 9.7870 -80.6040 294° West 444 511 27,200 180 Climbing FlightAware
02:44PM 9.8150 -80.6700 293° West 444 511 27,200  Level FlightAware
02:44PM 9.8420 -80.7350 293° West 444 511 27,200  Level FlightAware
02:45PM 9.8690 -80.8000 293° West 444 511 27,200  Level FlightAware
02:46PM 9.8970 -80.8650 294° West 444 511 27,200  Level FlightAware
02:46PM 9.9240 -80.9310 293° West 444 511 27,200 60 Level FlightAware
02:49PM 10.0835 -81.1184 302° West  Level Estimated
02:50PM 10.1417 -81.2084 303° West  Level FlightAware Approximate
02:51PM 10.1998 -81.2985 303° West  Level FlightAware Approximate
02:52PM 10.2580 -81.3886 303° West  Level FlightAware Approximate
02:53PM 10.3161 -81.4788 303° West  Level FlightAware Approximate
02:54PM 10.3742 -81.5690 303° West  Level FlightAware Approximate
02:55PM 10.4322 -81.6592 303° West  Level FlightAware Approximate
02:56PM 10.4903 -81.7495 303° West  Level FlightAware Approximate
02:57PM 10.5483 -81.8398 303° West  Level FlightAware Approximate
02:58PM 10.6062 -81.9301 303° West  Level FlightAware Approximate
02:59PM 10.6642 -82.0205 303° West  Level FlightAware Approximate
03:00PM 10.7221 -82.1108 303° West  Level FlightAware Approximate
03:01PM 10.7801 -82.2013 303° West  Level FlightAware Approximate
03:02PM 10.8379 -82.2917 303° West  Level FlightAware Approximate
03:03PM 10.8958 -82.3822 303° West  Level FlightAware Approximate
03:04PM 10.9536 -82.4728 303° West  Level FlightAware Approximate
03:05PM 11.0114 -82.5633 303° West  Level FlightAware Approximate
03:06PM 11.0707 -82.6568 301° West  Level FlightAware Approximate
03:07PM 11.1259 -82.7491 301° West  Level FlightAware Approximate
03:08PM 11.1810 -82.8414 301° West  Level FlightAware Approximate
03:09PM 11.2361 -82.9338 301° West  Level FlightAware Approximate
03:10PM 11.2912 -83.0262 301° West  Level FlightAware Approximate
03:11PM 11.3463 -83.1186 301° West  Level FlightAware Approximate
03:12PM 11.4013 -83.2111 301° West  Level FlightAware Approximate
03:13PM 11.4563 -83.3036 301° West  Level FlightAware Approximate
03:14PM 11.5112 -83.3961 301° West  Level FlightAware Approximate
03:15PM 11.5662 -83.4887 301° West  Level FlightAware Approximate
03:16PM 11.6211 -83.5813 301° West  Level FlightAware Approximate
03:17PM 11.6760 -83.6740 301° West  Level FlightAware Approximate
03:18PM 11.7308 -83.7667 301° West  Level FlightAware Approximate
03:19PM 11.7856 -83.8594 301° West  Level FlightAware Approximate
03:20PM 11.8404 -83.9522 301° West  Level FlightAware Approximate
03:21PM 11.8952 -84.0450 301° West  Level FlightAware Approximate
03:22PM 11.9499 -84.1378 301° West  Level FlightAware Approximate
03:23PM 12.0046 -84.2307 301° West  Level FlightAware Approximate
03:24PM 12.0592 -84.3236 301° West  Level FlightAware Approximate
03:25PM 12.1139 -84.4165 301° West  Level FlightAware Approximate
03:26PM 12.1685 -84.5095 301° West  Level FlightAware Approximate
03:27PM 12.2231 -84.6026 301° West  Level FlightAware Approximate
03:28PM 12.2776 -84.6956 301° West  Level FlightAware Approximate
03:29PM 12.3321 -84.7887 301° West  Level FlightAware Approximate
03:30PM 12.3866 -84.8819 301° West  Level FlightAware Approximate
03:31PM 12.4413 -84.9749 301° West  Level FlightAware Approximate
03:32PM 12.4962 -85.0678 301° West  Level FlightAware Approximate
03:33PM 12.5511 -85.1608 301° West  Level FlightAware Approximate
03:34PM 12.6060 -85.2537 301° West  Level FlightAware Approximate
03:35PM 12.6608 -85.3467 301° West  Level FlightAware Approximate
03:36PM 12.7156 -85.4398 301° West  Level FlightAware Approximate
03:37PM 12.7704 -85.5329 301° West  Level FlightAware Approximate
03:38PM 12.8251 -85.6261 301° West  Level FlightAware Approximate
03:39PM 12.8798 -85.7192 301° West  Level FlightAware Approximate
03:40PM 12.9345 -85.8124 301° West  Level FlightAware Approximate
03:41PM 12.9891 -85.9057 301° West  Level FlightAware Approximate
03:42PM 13.0437 -85.9990 301° West  Level FlightAware Approximate
03:43PM 13.0983 -86.0924 301° West  Level FlightAware Approximate
03:44PM 13.1528 -86.1858 301° West  Level FlightAware Approximate
03:45PM 13.2073 -86.2792 301° West  Level FlightAware Approximate
03:46PM 13.2618 -86.3727 301° West  Level FlightAware Approximate
03:46PM 13.7020 -87.4090 301° West 442 509 34,000  Level FlightAware
03:47PM 13.3162 -86.4662 301° West  Level FlightAware Approximate
03:47PM 13.7460 -87.4820 302° West 448 516 34,000  Level FlightAware
03:47PM 13.7970 -87.5650 302° West 449 517 34,000  Level FlightAware
03:48PM 13.8420 -87.6370 303° West 451 519 34,000  Level FlightAware
03:49PM 13.8910 -87.7180 302° West 452 520 34,000  Level FlightAware
03:49PM 13.9360 -87.7920 302° West 452 520 34,000  Level FlightAware
03:50PM 13.9800 -87.8640 302° West 452 520 34,000  Level FlightAware
03:51PM 14.0310 -87.9480 302° West 450 518 34,000  Level FlightAware
03:51PM 14.0740 -88.0190 302° West 445 512 34,000  Level FlightAware
03:52PM 14.1190 -88.0930 302° West 446 513 34,000  Level FlightAware
03:53PM 14.1690 -88.1750 302° West 444 511 34,000  Level FlightAware
03:54PM 14.2120 -88.2450 302° West 442 509 34,000  Level FlightAware
03:54PM 14.2620 -88.3280 302° West 443 510 34,000  Level FlightAware
03:55PM 14.3050 -88.3990 302° West 442 509 34,000  Level FlightAware
03:56PM 14.3550 -88.4820 302° West 443 510 34,000  Level FlightAware
03:56PM 14.3980 -88.5530 302° West 441 507 34,000  Level FlightAware
03:57PM 14.4410 -88.6250 302° West 442 509 34,000  Level FlightAware
03:58PM 14.4910 -88.7070 302° West 442 509 34,000  Level FlightAware
03:58PM 14.5350 -88.7800 302° West 442 509 34,000  Level FlightAware
03:59PM 14.5840 -88.8610 302° West 442 509 34,000  Level FlightAware
04:00PM 14.6280 -88.9340 302° West 443 510 34,000 120 Level FlightAware
04:01PM 14.6710 -89.0060 302° West 443 510 34,200 660 Climbing FlightAware
04:01PM 14.7200 -89.0870 302° West 440 506 35,000 840 Climbing FlightAware
04:02PM 14.7630 -89.1590 302° West 440 506 35,400 600 Climbing FlightAware
04:03PM 14.8120 -89.2410 302° West 442 509 35,900 420 Climbing FlightAware
04:03PM 14.8620 -89.3070 308° West 446 513 36,000 60 Climbing FlightAware
04:04PM 14.9270 -89.3780 313° West 439 505 36,000  Level FlightAware
04:05PM 14.9820 -89.4410 312° West 439 505 36,000  Level FlightAware
04:05PM 15.0360 -89.5030 312° West 438 504 36,000  Level FlightAware
04:06PM 15.0980 -89.5750 312° West 437 503 36,000  Level FlightAware
04:07PM 15.1520 -89.6370 312° West 442 509 36,000  Level FlightAware
04:08PM 15.2140 -89.7090 312° West 439 505 36,000  Level FlightAware
04:08PM 15.2670 -89.7710 312° West 439 505 36,000  Level FlightAware
04:09PM 15.3220 -89.8360 311° West 438 504 36,000  Level FlightAware
04:10PM 15.3780 -89.9110 308° West 431 496 36,000  Level FlightAware
04:10PM 15.4260 -89.9770 307° West 432 497 36,000  Level FlightAware
04:11PM 15.4730 -90.0470 305° West 432 497 36,000  Level FlightAware
04:12PM 15.5250 -90.1230 305° West 431 496 36,000  Level FlightAware
04:12PM 15.5720 -90.1920 305° West 432 497 36,000  Level FlightAware
04:13PM 15.6200 -90.2600 306° West 438 504 36,000  Level FlightAware
04:14PM 15.6650 -90.3240 306° West 439 505 36,000  Level FlightAware
04:15PM 15.7250 -90.4100 306° West 441 507 36,000  Level FlightAware
04:16PM 15.7940 -90.5050 307° West 439 505 36,000  Level FlightAware
04:16PM 15.8450 -90.5740 308° West 440 506 36,000  Level FlightAware
04:17PM 15.8950 -90.6450 306° West 440 506 36,000  Level FlightAware
04:18PM 15.9360 -90.7040 306° West 440 506 36,000  Level FlightAware
04:18PM 15.9770 -90.7620 306° West 440 506 36,000  Level FlightAware
04:19PM 16.0170 -90.8200 306° West 440 506 36,000  Level FlightAware
04:20PM 16.0580 -90.8780 306° West 440 506 36,000  Level FlightAware
04:20PM 16.0990 -90.9370 306° West 440 506 36,000  Level FlightAware
04:21PM 16.1500 -91.0090 306° West 440 506 36,000  Level FlightAware
04:22PM 16.1900 -91.0680 305° West 440 506 36,000  Level FlightAware
04:22PM 16.2310 -91.1260 306° West 440 506 36,000  Level FlightAware
04:23PM 16.2720 -91.1840 306° West 440 506 36,000  Level FlightAware
04:24PM 16.3230 -91.2570 306° West 440 506 36,000  Level FlightAware
04:25PM 16.3630 -91.3160 305° West 440 506 36,000  Level FlightAware
04:25PM 16.4040 -91.3740 306° West 440 506 36,000  Level FlightAware
04:26PM 16.4450 -91.4320 306° West 440 506 36,000  Level FlightAware
04:29PM 16.6220 -91.6452 311° West  Level Estimated
04:30PM 16.6914 -91.7290 311° West  Level Estimated
04:31PM 16.7607 -91.8128 311° West  Level Estimated
04:32PM 16.8300 -91.8966 311° West  Level Estimated
04:33PM 16.8993 -91.9805 311° West  Level Estimated
04:34PM 16.9685 -92.0645 311° West  Level Estimated
04:35PM 17.0377 -92.1486 311° West  Level Estimated
04:36PM 17.1068 -92.2327 311° West  Level Estimated
04:37PM 17.1759 -92.3168 311° West  Level Estimated
04:38PM 17.2450 -92.4010 311° West  Level Estimated
04:39PM 17.3141 -92.4853 311° West  Level Estimated
04:40PM 17.3831 -92.5697 311° West  Level Estimated
04:41PM 17.4521 -92.6541 311° West  Level Estimated
04:42PM 17.5210 -92.7386 311° West  Level Estimated
04:43PM 17.5899 -92.8231 311° West  Level Estimated
04:44PM 17.6588 -92.9077 311° West  Level Estimated
04:45PM 17.7276 -92.9924 310° West  Level Estimated
04:46PM 17.7964 -93.0771 310° West  Level Estimated
04:47PM 17.8652 -93.1619 310° West  Level Estimated
04:48PM 17.9339 -93.2468 310° West  Level Estimated
04:49PM 18.0026 -93.3317 310° West  Level Estimated
04:50PM 18.0713 -93.4167 310° West  Level Estimated
04:51PM 18.1399 -93.5018 310° West  Level Estimated
04:52PM 18.2085 -93.5870 310° West  Level Estimated
04:53PM 18.2770 -93.6721 310° West  Level Estimated
04:54PM 18.3455 -93.7574 310° West  Level Estimated
04:55PM 18.4140 -93.8428 310° West  Level Estimated
04:56PM 18.4824 -93.9282 310° West  Level Estimated
04:57PM 18.5508 -94.0136 310° West  Level Estimated
04:58PM 18.6192 -94.0992 310° West  Level Estimated
04:59PM 18.6875 -94.1848 310° West  Level Estimated
05:00PM 18.7557 -94.2705 310° West  Level Estimated
05:01PM 18.8240 -94.3562 310° West  Level Estimated
05:02PM 18.8922 -94.4420 310° West  Level Estimated
05:03PM 18.9603 -94.5279 310° West  Level Estimated
05:04PM 19.0284 -94.6139 310° West  Level Estimated
05:05PM 19.0965 -94.6999 310° West  Level Estimated
05:06PM 19.1646 -94.7860 310° West  Level Estimated
05:07PM 19.2325 -94.8722 310° West  Level Estimated
05:08PM 19.3005 -94.9584 310° West  Level Estimated
05:09PM 19.3684 -95.0447 310° West  Level Estimated
05:10PM 19.4363 -95.1311 310° West  Level Estimated
05:11PM 19.5041 -95.2176 310° West  Level Estimated
05:12PM 19.5719 -95.3041 310° West  Level Estimated
05:13PM 19.6397 -95.3907 310° West  Level Estimated
05:14PM 19.7074 -95.4774 310° West  Level Estimated
05:15PM 19.7750 -95.5641 310° West  Level Estimated
05:16PM 19.8427 -95.6510 310° West  Level Estimated
05:17PM 19.9102 -95.7379 310° West  Level Estimated
05:18PM 19.9778 -95.8248 310° West  Level Estimated
05:19PM 20.0453 -95.9119 310° West  Level Estimated
05:20PM 20.1127 -95.9990 310° West  Level Estimated
05:21PM 20.1802 -96.0862 309° West  Level Estimated
05:22PM 20.2475 -96.1735 309° West  Level Estimated
05:23PM 20.3149 -96.2608 309° West  Level Estimated
05:24PM 20.3821 -96.3482 309° West  Level Estimated
05:25PM 20.4494 -96.4357 309° West  Level Estimated
05:26PM 20.5166 -96.5233 309° West  Level Estimated
05:27PM 20.5837 -96.6110 309° West  Level Estimated
05:28PM 20.6508 -96.6987 309° West  Level Estimated
05:29PM 20.7179 -96.7865 309° West  Level Estimated
05:30PM 20.7849 -96.8744 309° West  Level Estimated
05:31PM 20.8519 -96.9624 309° West  Level Estimated
05:32PM 20.9188 -97.0504 309° West  Level Estimated
05:33PM 20.9857 -97.1385 309° West  Level Estimated
05:34PM 21.0525 -97.2267 309° West  Level Estimated
05:35PM 21.1193 -97.3150 309° West  Level Estimated
05:36PM 21.1861 -97.4034 309° West  Level Estimated
05:37PM 21.2528 -97.4918 309° West  Level Estimated
05:38PM 21.3194 -97.5803 309° West  Level Estimated
05:39PM 21.3860 -97.6689 309° West  Level Estimated
05:40PM 21.4526 -97.7576 309° West  Level Estimated
05:41PM 21.5191 -97.8464 309° West  Level Estimated
05:42PM 21.5856 -97.9352 309° West  Level Estimated
05:43PM 21.6520 -98.0241 309° West  Level Estimated
05:44PM 21.7184 -98.1131 309° West  Level Estimated
05:45PM 21.7847 -98.2022 309° West  Level Estimated
05:46PM 21.8510 -98.2914 309° West  Level Estimated
05:47PM 21.9172 -98.3806 309° West  Level Estimated
05:48PM 21.9834 -98.4700 309° West  Level Estimated
05:49PM 22.0495 -98.5594 309° West  Level Estimated
05:50PM 22.1156 -98.6489 309° West  Level Estimated
05:51PM 22.1817 -98.7385 309° West  Level Estimated
05:52PM 22.2477 -98.8281 308° West  Level Estimated
05:53PM 22.3136 -98.9179 308° West  Level Estimated
05:54PM 22.3795 -99.0077 308° West  Level Estimated
05:55PM 22.4453 -99.0976 308° West  Level Estimated
05:56PM 22.5111 -99.1877 308° West  Level Estimated
05:57PM 22.5769 -99.2778 308° West  Level Estimated
05:58PM 22.6425 -99.3679 308° West  Level Estimated
05:59PM 22.7082 -99.4582 308° West  Level Estimated
06:00PM 22.7738 -99.5486 308° West  Level Estimated
06:01PM 22.8393 -99.6390 308° West  Level Estimated
06:02PM 22.9048 -99.7295 308° West  Level Estimated
06:03PM 22.9702 -99.8202 308° West  Level Estimated
06:04PM 23.0356 -99.9109 308° West  Level Estimated
06:05PM 23.1010 -100.0016 308° West  Level Estimated
06:06PM 23.1662 -100.0925 308° West  Level Estimated
06:07PM 23.2315 -100.1835 308° West  Level Estimated
06:08PM 23.2966 -100.2746 308° West  Level Estimated
06:09PM 23.3618 -100.3657 308° West  Level Estimated
06:10PM 23.4268 -100.4569 308° West  Level Estimated
06:11PM 23.4919 -100.5483 308° West  Level Estimated
06:12PM 23.5568 -100.6397 308° West  Level Estimated
06:13PM 23.6217 -100.7312 308° West  Level Estimated
06:14PM 23.6866 -100.8228 308° West  Level Estimated
06:15PM 23.7514 -100.9145 308° West  Level Estimated
06:16PM 23.8161 -101.0063 308° West  Level Estimated
06:17PM 23.8808 -101.0981 308° West  Level Estimated
06:18PM 23.9455 -101.1901 308° West  Level Estimated
06:19PM 24.0100 -101.2822 308° West  Level Estimated
06:20PM 24.0746 -101.3743 308° West  Level Estimated
06:21PM 24.1390 -101.4665 307° West  Level Estimated
06:22PM 24.2035 -101.5589 307° West  Level Estimated
06:23PM 24.2678 -101.6513 307° West  Level Estimated
06:24PM 24.3321 -101.7438 307° West  Level Estimated
06:25PM 24.3964 -101.8364 307° West  Level Estimated
06:26PM 24.4606 -101.9291 307° West  Level Estimated
06:27PM 24.5247 -102.0219 307° West  Level Estimated
06:28PM 24.5888 -102.1148 307° West  Level Estimated
06:29PM 24.6528 -102.2078 307° West  Level Estimated
06:30PM 24.7168 -102.3009 307° West  Level Estimated
06:31PM 24.7807 -102.3941 307° West  Level Estimated
06:32PM 24.8445 -102.4874 307° West  Level Estimated
06:33PM 24.9083 -102.5808 307° West  Level Estimated
06:34PM 24.9721 -102.6742 307° West  Level Estimated
06:35PM 25.0358 -102.7678 307° West  Level Estimated
06:36PM 25.0994 -102.8615 307° West  Level Estimated
06:37PM 25.1629 -102.9552 307° West  Level Estimated
06:38PM 25.2264 -103.0491 307° West  Level Estimated
06:39PM 25.2899 -103.1431 307° West  Level Estimated
06:40PM 25.3533 -103.2371 307° West  Level Estimated
06:41PM 25.4166 -103.3313 307° West  Level Estimated
06:42PM 25.4798 -103.4255 307° West  Level Estimated
06:43PM 25.5430 -103.5199 307° West  Level Estimated
06:44PM 25.6062 -103.6143 307° West  Level Estimated
06:45PM 25.6693 -103.7089 307° West  Level Estimated
06:46PM 25.7323 -103.8035 306° West  Level Estimated
06:47PM 25.7952 -103.8983 306° West  Level Estimated
06:48PM 25.8581 -103.9931 306° West  Level Estimated
06:49PM 25.9210 -104.0881 306° West  Level Estimated
06:50PM 25.9837 -104.1832 306° West  Level Estimated
06:51PM 26.0464 -104.2783 306° West  Level Estimated
06:52PM 26.1091 -104.3736 306° West  Level Estimated
06:53PM 26.1717 -104.4689 306° West  Level Estimated
06:54PM 26.2342 -104.5644 306° West  Level Estimated
06:55PM 26.2967 -104.6600 306° West  Level Estimated
06:56PM 26.3591 -104.7556 306° West  Level Estimated
06:57PM 26.4214 -104.8514 306° West  Level Estimated
06:58PM 26.4837 -104.9473 306° West  Level Estimated
06:59PM 26.5459 -105.0433 306° West  Level Estimated
07:00PM 26.6080 -105.1394 306° West  Level Estimated
07:01PM 26.6701 -105.2355 306° West  Level Estimated
07:02PM 26.7321 -105.3318 306° West  Level Estimated
07:03PM 26.7941 -105.4282 306° West  Level Estimated
07:03PM 27.3980 -106.4040 306° West 350 403 36,000  Level FlightAware
07:04PM 26.8559 -105.5247 306° West  Level Estimated
07:04PM 27.4370 -106.4660 305° West 350 403 36,000  Level FlightAware
07:05PM 27.4770 -106.5320 304° West 351 404 36,000  Level FlightAware
07:05PM 27.5080 -106.5840 304° West 351 404 36,000  Level FlightAware
07:06PM 27.5390 -106.6350 304° West 351 404 36,000  Level FlightAware
07:07PM 27.5780 -106.7000 304° West 351 404 36,000  Level FlightAware
07:08PM 27.6080 -106.7520 303° West 351 404 36,000  Level FlightAware
07:08PM 27.6390 -106.8030 304° West 351 404 36,000  Level FlightAware
07:09PM 27.6700 -106.8550 304° West 351 404 36,000  Level FlightAware
07:10PM 27.7010 -106.9070 304° West 351 404 36,000  Level FlightAware
07:10PM 27.7400 -106.9710 305° West 351 404 36,000  Level FlightAware
07:11PM 27.7700 -107.0230 303° West 351 404 36,000  Level FlightAware
07:12PM 27.8010 -107.0750 304° West 351 404 36,000  Level FlightAware
07:12PM 27.8320 -107.1260 305° West 351 404 36,000  Level FlightAware
07:13PM 27.8630 -107.1780 304° West 351 404 36,000  Level FlightAware
07:14PM 27.8940 -107.2300 304° West 351 404 36,000  Level FlightAware
07:16PM 27.9949 -107.4135 302° West  Level FlightAware Approximate
07:17PM 28.0508 -107.5155 302° West  Level FlightAware Approximate
07:18PM 28.1066 -107.6177 302° West  Level FlightAware Approximate
07:19PM 28.1624 -107.7200 302° West  Level FlightAware Approximate
07:20PM 28.2181 -107.8224 302° West  Level FlightAware Approximate
07:21PM 28.2737 -107.9249 302° West  Level FlightAware Approximate
07:22PM 28.3293 -108.0275 302° West  Level FlightAware Approximate
07:23PM 28.3847 -108.1302 302° West  Level FlightAware Approximate
07:24PM 28.4401 -108.2330 302° West  Level FlightAware Approximate
07:25PM 28.4954 -108.3359 301° West  Level FlightAware Approximate
07:26PM 28.5507 -108.4389 301° West  Level FlightAware Approximate
07:27PM 28.6080 -108.5412 304° West  Level FlightAware Approximate
07:28PM 28.6676 -108.6412 304° West  Level FlightAware Approximate
07:29PM 28.7271 -108.7412 304° West  Level FlightAware Approximate
07:30PM 28.7866 -108.8414 304° West  Level FlightAware Approximate
07:31PM 28.8460 -108.9417 304° West  Level FlightAware Approximate
07:32PM 28.9053 -109.0421 304° West  Level FlightAware Approximate
07:33PM 28.9645 -109.1425 304° West  Level FlightAware Approximate
07:34PM 29.0237 -109.2432 304° West  Level FlightAware Approximate
07:35PM 29.0828 -109.3439 304° West  Level FlightAware Approximate
07:36PM 29.1418 -109.4447 304° West  Level FlightAware Approximate
07:37PM 29.2007 -109.5457 304° West  Level FlightAware Approximate
07:38PM 29.2596 -109.6468 304° West  Level FlightAware Approximate
07:39PM 29.3184 -109.7480 304° West  Level FlightAware Approximate
07:40PM 29.3771 -109.8493 304° West  Level FlightAware Approximate
07:41PM 29.4357 -109.9507 304° West  Level FlightAware Approximate
07:42PM 29.4942 -110.0523 303° West  Level FlightAware Approximate
07:43PM 29.5526 -110.1541 303° West  Level FlightAware Approximate
07:44PM 29.6109 -110.2559 303° West  Level FlightAware Approximate
07:45PM 29.6692 -110.3579 303° West  Level FlightAware Approximate
07:46PM 29.7273 -110.4600 303° West  Level FlightAware Approximate
07:47PM 29.7854 -110.5622 303° West  Level FlightAware Approximate
07:48PM 29.8434 -110.6645 303° West  Level FlightAware Approximate
07:49PM 29.9013 -110.7669 303° West  Level FlightAware Approximate
07:49PM 29.9190 -110.6480 303° West 363 418 36,000  Level FlightAware
07:50PM 29.9592 -110.8695 303° West  Level FlightAware Approximate
07:50PM 29.9600 -110.7210 303° West 363 418 36,000  Level FlightAware
07:51PM 29.9970 -110.7870 303° West 362 417 36,000  Level FlightAware
07:51PM 30.0320 -110.8490 303° West 363 418 36,000  Level FlightAware
07:52PM 30.0740 -110.9250 303° West 363 418 36,000  Level FlightAware
07:53PM 30.1100 -110.9880 303° West 364 419 36,000  Level FlightAware
07:54PM 30.1520 -111.0640 303° West 364 419 36,000  Level FlightAware
07:54PM 30.1890 -111.1290 303° West 364 419 36,000  Level FlightAware
07:55PM 30.2290 -111.2020 302° West 364 419 36,000  Level FlightAware
07:55PM 30.2520 -111.2430 303° West 364 419 36,000  Level FlightAware
07:56PM 30.2930 -111.3150 303° West 365 420 36,000  Level FlightAware
07:57PM 30.3290 -111.3810 302° West 365 420 36,000  Level FlightAware
07:58PM 30.3650 -111.4470 302° West 366 421 36,000  Level FlightAware
07:58PM 30.4080 -111.5230 303° West 368 423 36,000  Level FlightAware
07:59PM 30.4440 -111.5900 302° West 370 426 36,000  Level FlightAware
08:00PM 30.5000 -111.6910 303° West 370 426 36,000  Level FlightAware
08:01PM 30.5380 -111.7630 302° West 370 426 36,000  Level FlightAware
08:02PM 30.6000 -111.8730 303° West 375 432 36,000  Level FlightAware
08:02PM 30.6380 -111.9430 302° West 377 434 36,000  Level FlightAware
08:03PM 30.6800 -112.0210 302° West 378 435 36,000  Level FlightAware
08:04PM 30.7160 -112.0850 303° West 379 436 36,000  Level FlightAware
08:05PM 30.7560 -112.1590 302° West 380 437 36,000  Level FlightAware
08:05PM 30.7890 -112.2210 302° West 381 438 36,000  Level FlightAware
08:06PM 30.8450 -112.3240 302° West 376 433 36,000  Level FlightAware
08:08PM 30.9350 -112.4920 302° West 378 435 36,000  Level FlightAware
08:08PM 30.9720 -112.5590 303° West 380 437 36,000  Level FlightAware
08:10PM 31.0350 -112.6760 302° West 380 437 36,000  Level FlightAware
08:10PM 31.0870 -112.7740 302° West 381 438 36,000  Level FlightAware
08:11PM 31.1240 -112.8440 302° West 381 438 36,000  Level FlightAware
08:12PM 31.1610 -112.9130 302° West 381 438 36,000  Level FlightAware
08:13PM 31.2050 -112.9950 302° West 381 438 36,000  Level FlightAware
08:13PM 31.2400 -113.0600 302° West 382 440 36,000  Level FlightAware
08:14PM 31.2720 -113.1200 302° West 383 441 36,000  Level FlightAware
08:15PM 31.3200 -113.2120 301° West 384 442 36,000  Level FlightAware
08:15PM 31.3530 -113.2740 302° West 389 448 36,000  Level FlightAware
08:16PM 31.3920 -113.3490 301° West 389 448 36,000  Level FlightAware
08:17PM 31.4400 -113.4300 305° West 386 444 36,000  Level FlightAware
08:17PM 31.4790 -113.5030 302° West 386 444 36,000  Level FlightAware
08:18PM 31.5150 -113.5640 305° West 391 450 36,000  Level FlightAware
08:19PM 31.5480 -113.6240 303° West 391 450 36,000  Level FlightAware
08:20PM 31.5900 -113.7000 303° West 391 450 36,000  Level FlightAware
08:20PM 31.6430 -113.7950 303° West 391 450 36,000  Level FlightAware
08:21PM 31.6810 -113.8620 304° West 391 450 36,000  Level FlightAware
08:22PM 31.7190 -113.9310 303° West 391 450 36,000  Level FlightAware
08:23PM 31.7770 -114.0350 303° West 390 449 36,000  Level FlightAware
08:23PM 31.8100 -114.0960 302° West 390 449 36,000  Level FlightAware
08:24PM 31.8440 -114.1560 304° West 390 449 36,000  Level FlightAware
08:25PM 31.8770 -114.2170 303° West 390 449 36,000  Level FlightAware
08:25PM 31.9190 -114.2920 303° West 390 449 36,000  Level FlightAware
08:26PM 31.9520 -114.3530 303° West 390 449 36,000  Level FlightAware
08:27PM 31.9860 -114.4140 303° West 390 449 36,000  Level FlightAware
08:27PM 32.0190 -114.4740 303° West 390 449 36,000  Level FlightAware
08:28PM 32.0520 -114.5350 303° West 390 449 36,000  Level FlightAware
08:29PM 32.0940 -114.6110 303° West 390 449 36,000  Level FlightAware
08:30PM 32.1280 -114.6720 303° West 390 449 36,000  Level FlightAware
08:30PM 32.1610 -114.7330 303° West 390 449 36,000  Level FlightAware
08:31PM 32.1940 -114.7930 303° West 390 449 36,000  Level FlightAware
08:32PM 32.2280 -114.8540 303° West 390 449 36,000  Level FlightAware
08:32PM 32.3306 -115.0533 300° West 392 451 36,000  Level Los Angeles Center
08:33PM 32.3892 -115.1614 303° West 390 449 36,000  Level Los Angeles Center
08:34PM 32.3330 -115.0671 300° West  Level FlightAware Approximate
08:34PM 32.4550 -115.2872 302° West 390 449 36,000  Level Los Angeles Center
08:35PM 32.3863 -115.1757 300° West  Level FlightAware Approximate
08:35PM 32.5128 -115.3972 302° West 392 451 36,000  Level Los Angeles Center
08:36PM 32.4395 -115.2844 300° West  Level FlightAware Approximate
08:36PM 32.5717 -115.5053 303° West 391 450 36,000  Level Los Angeles Center
08:37PM 32.4925 -115.3932 300° West  Level FlightAware Approximate
08:42PM 32.9040 -116.1310 303° West 390 449 33,600  Level FlightAware
08:42PM 32.9380 -116.1980 301° West 392 451 33,300 -2,580 Descending FlightAware
08:43PM 32.9840 -116.2840 303° West 391 450 30,000 -3,240 Descending FlightAware
08:44PM 33.0210 -116.3550 302° West 385 443 28,500 -2,280 Descending FlightAware
08:44PM 33.0660 -116.4410 302° West 376 433 26,800 -2,340 Descending FlightAware
08:45PM 33.1060 -116.5190 301° West 367 422 25,200 -1,980 Descending FlightAware
08:46PM 33.1370 -116.5880 298° West 360 414 24,000 -900 Descending FlightAware
08:47PM 33.1500 -116.6670 281° West 360 414 24,000 -1,200 Level FlightAware
08:47PM 33.1620 -116.7570 279° West 360 414 22,300 -2,580 Descending FlightAware
08:48PM 33.1710 -116.8350 278° West 370 426 20,400 -2,400 Descending FlightAware
08:49PM 33.1800 -116.9090 278° West 359 413 19,100 -1,980 Descending FlightAware
08:49PM 33.1890 -116.9860 278° West 350 403 17,800 -1,800 Descending FlightAware
08:50PM 33.2010 -117.0830 278° West 338 389 16,100 -2,040 Descending FlightAware
08:51PM 33.2130 -117.1860 278° West 329 379 14,300 -2,220 Descending FlightAware
08:52PM 33.2220 -117.2560 279° West 325 374 13,000 -1,740 Descending FlightAware
08:52PM 33.2310 -117.3340 278° West 318 366 11,900 -780 Descending FlightAware
08:53PM 33.2390 -117.4000 278° West 317 365 11,900  Level FlightAware
08:54PM 33.2440 -117.4740 275° West 321 369 11,900 -360 Level FlightAware
08:55PM 33.2580 -117.5530 282° West 314 361 11,400 -900 Descending FlightAware
08:55PM 33.2880 -117.6110 302° West 313 360 10,700 -1,020 Descending FlightAware
08:56PM 33.3190 -117.6680 303° West 310 357 10,100 -720 Descending FlightAware
08:56PM 33.3420 -117.7120 302° West 303 349 9,900 -540 Descending FlightAware
08:57PM 33.3640 -117.7520 303° West 278 320 9,600 -1,020 Descending FlightAware
08:57PM 33.3810 -117.7840 302° West 277 319 9,000 -1,560 Descending FlightAware
08:58PM 33.4020 -117.8230 303° West 278 320 8,200 -1,500 Descending FlightAware
08:58PM 33.4120 -117.8430 301° West 276 318 7,900 -480 Descending FlightAware
08:58PM 33.4290 -117.8740 303° West 274 315 7,900  Level FlightAware
08:59PM 33.4560 -117.9040 317° Northwest 265 305 7,900  Level FlightAware
08:59PM 33.4750 -117.9130 338° Northwest 267 307 7,900  Level FlightAware
09:00PM 33.5020 -117.9260 338° Northwest 267 307 7,900  Level FlightAware
09:00PM 33.5370 -117.9420 339° North 267 307 7,900  Level FlightAware
09:01PM 33.5670 -117.9560 339° North 269 310 7,900  Level FlightAware
09:01PM 33.5840 -117.9630 341° North 269 310 7,900  Level FlightAware
09:01PM 33.6140 -117.9770 339° North 268 308 7,900  Level FlightAware
09:02PM 33.6490 -117.9930 339° North 270 311 7,900 -180 Level FlightAware
09:02PM 33.6650 -118.0010 337° Northwest 270 311 7,800 -1,380 Descending FlightAware
09:02PM 33.6960 -118.0150 339° North 273 314 7,000 -1,020 Descending FlightAware
09:03PM 33.7290 -118.0300 339° North 252 290 6,900 -120 Descending FlightAware
09:03PM 33.7600 -118.0440 339° North 226 260 6,900  Level FlightAware
09:04PM 33.7820 -118.0530 341° North 202 232 6,900  Level FlightAware
09:04PM 33.8090 -118.0510 North 201 231 6,900  Level FlightAware
09:05PM 33.8390 -118.0490 North 196 226 6,900  Level FlightAware
09:05PM 33.8610 -118.0470 North 195 224 6,900  Level FlightAware
09:06PM 33.8780 -118.0460 North 197 227 6,900  Level FlightAware
09:06PM 33.9060 -118.0440 North 189 217 6,900  Level FlightAware
09:07PM 33.9310 -118.0570 337° Northwest 191 220 6,900  Level FlightAware
09:07PM 33.9490 -118.0690 331° Northwest 174 200 6,900  Level FlightAware
09:07PM 33.9710 -118.0830 332° Northwest 176 203 6,900  Level FlightAware
09:08PM 33.9790 -118.0920 317° Northwest 176 203 6,900 -480 Level FlightAware
09:08PM 33.9820 -118.1000 294° West 176 203 6,700 -1,680 Descending FlightAware
09:08PM 33.9860 -118.1170 286° West 184 212 6,200 -1,380 Descending FlightAware
09:09PM 33.9790 -118.1440 253° West 178 205 5,700 -1,200 Descending FlightAware
09:09PM 33.9720 -118.1660 249° West 170 196 5,100 -1,500 Descending FlightAware
09:09PM 33.9710 -118.1800 265° West 165 190 4,700 -1,200 Descending FlightAware
09:10PM 33.9720 -118.2000 273° West 154 177 4,300 -1,200 Descending FlightAware
09:10PM 33.9700 -118.2250 264° West 149 171 3,600 -1,500 Descending FlightAware
09:11PM 33.9670 -118.2520 262° West 147 169 2,800 -1,560 Descending FlightAware
09:11PM 33.9650 -118.2710 263° West 144 166 2,200 -1,140 Descending FlightAware
09:12PM 33.9630 -118.2950 264° West 143 165 1,800 -720 Descending FlightAware
09:12PM 33.9610 -118.3180 264° West 139 160 1,400 -660 Descending FlightAware
09:13PM 33.9590 -118.3360 262° West 133 153 1,100 -780 Descending FlightAware
09:13PM 33.9560 -118.3610 262° West 131 151 700 -720 Descending FlightAware
09:14PM 33.9540 -118.3850 264° West 139 160 400 -660 Descending FlightAware
09:14PM 33.9520 -118.4010 261° West 144 166 100 -360 Descending FlightAware
09:15PM 33.9500 -118.4190 262° West 144 166 100  Level FlightAware